createdAt,value
2023-01-17T00:00:53.891Z,94785.13
2023-01-17T00:03:20.973Z,94783.00
2023-01-17T00:05:48.035Z,94788.81
2023-01-17T00:08:15.149Z,94790.69
2023-01-17T00:10:42.221Z,94791.66
2023-01-17T00:13:09.312Z,94797.47
2023-01-17T00:15:37.899Z,94798.34
2023-01-17T00:18:05.028Z,94814.09
2023-01-17T00:20:32.655Z,94805.13
2023-01-17T00:22:59.857Z,94813.16
2023-01-17T00:25:30.890Z,94810.16
2023-01-17T00:27:58.284Z,94810.00
2023-01-17T00:30:25.803Z,94812.84
2023-01-17T00:32:54.245Z,94809.19
2023-01-17T00:35:22.852Z,94808.19
2023-01-17T00:37:59.931Z,94815.13
2023-01-17T00:40:27.109Z,94810.59
2023-01-17T00:42:54.182Z,94821.91
2023-01-17T00:45:21.253Z,94833.09
2023-01-17T00:47:48.356Z,94828.91
2023-01-17T00:50:17.064Z,94844.81
2023-01-17T00:52:44.148Z,94854.75
2023-01-17T00:55:11.204Z,94846.56
2023-01-17T00:57:38.284Z,94852.38
2023-01-17T01:00:06.687Z,94864.53
2023-01-17T01:02:34.573Z,94843.94
2023-01-17T01:05:02.193Z,94884.06
2023-01-17T01:07:30.684Z,94882.94
2023-01-17T01:09:57.766Z,94877.78
2023-01-17T01:12:24.860Z,94887.91
2023-01-17T01:14:51.961Z,94860.75
2023-01-17T01:17:19.094Z,94887.75
2023-01-17T01:19:46.186Z,94885.09
2023-01-17T01:22:13.563Z,94892.34
2023-01-17T01:24:42.198Z,94883.19
2023-01-17T01:27:09.411Z,94892.94
2023-01-17T01:29:36.503Z,94906.13
2023-01-17T01:32:03.688Z,94893.88
2023-01-17T01:34:31.210Z,94906.13
2023-01-17T01:36:58.391Z,94906.47
2023-01-17T01:39:25.484Z,94890.00
2023-01-17T01:41:53.890Z,94911.69
2023-01-17T01:44:44.957Z,94919.06
2023-01-17T01:47:15.638Z,94917.38
2023-01-17T01:49:43.386Z,94920.19
2023-01-17T01:52:11.846Z,94921.59
2023-01-17T01:54:43.808Z,94911.25
2023-01-17T01:57:16.096Z,94913.25
2023-01-17T01:59:48.839Z,94918.16
2023-01-17T02:02:16.683Z,94915.78
2023-01-17T02:04:45.058Z,94904.31
2023-01-17T02:07:17.432Z,94910.34
2023-01-17T02:09:45.413Z,94906.53
2023-01-17T02:12:14.236Z,94911.59
2023-01-17T02:14:41.329Z,94910.81
2023-01-17T02:17:17.836Z,94912.72
2023-01-17T02:20:18.615Z,94906.88
2023-01-17T02:23:33.346Z,94910.34
2023-01-17T02:26:17.922Z,94917.88
2023-01-17T02:28:57.311Z,94914.88
2023-01-17T02:31:29.728Z,94903.56
2023-01-17T02:34:06.687Z,94918.31
2023-01-17T02:36:38.429Z,94909.38
2023-01-17T02:39:11.826Z,94906.22
2023-01-17T02:41:41.515Z,94908.59
2023-01-17T02:44:09.754Z,94905.44
2023-01-17T02:46:45.497Z,94910.53
2023-01-17T02:49:13.264Z,94914.34
2023-01-17T02:51:56.147Z,94906.28
2023-01-17T02:54:54.342Z,94902.59
2023-01-17T02:57:41.829Z,94909.22
2023-01-17T03:00:20.513Z,94911.19
2023-01-17T03:02:58.811Z,94915.50
2023-01-17T03:05:30.728Z,94920.09
2023-01-17T03:07:59.261Z,94915.84
2023-01-17T03:10:26.372Z,94923.28
2023-01-17T03:12:57.456Z,94922.63
2023-01-17T03:15:24.945Z,94928.19
2023-01-17T03:17:58.541Z,94924.66
2023-01-17T03:20:25.653Z,94927.59
2023-01-17T03:22:52.804Z,94923.97
2023-01-17T03:25:20.131Z,94930.88
2023-01-17T03:27:47.381Z,94929.84
2023-01-17T03:30:14.707Z,94932.72
2023-01-17T03:32:42.021Z,94940.88
2023-01-17T03:35:10.979Z,94935.72
2023-01-17T03:37:38.041Z,94948.94
2023-01-17T03:40:06.540Z,94958.59
2023-01-17T03:42:33.745Z,94958.78
2023-01-17T03:45:01.113Z,94954.38
2023-01-17T03:47:28.249Z,94960.81
2023-01-17T03:49:55.736Z,94964.28
2023-01-17T03:52:24.257Z,94958.47
2023-01-17T03:54:51.356Z,94957.88
2023-01-17T03:57:18.447Z,94964.25
2023-01-17T03:59:45.511Z,94942.78
2023-01-17T04:02:12.952Z,94962.66
2023-01-17T04:04:40.246Z,94964.88
2023-01-17T04:07:07.396Z,94957.44
2023-01-17T04:09:36.093Z,94965.00
2023-01-17T04:12:03.461Z,94969.78
2023-01-17T04:14:30.847Z,94968.88
2023-01-17T04:16:58.117Z,94970.06
2023-01-17T04:19:25.406Z,94971.31
2023-01-17T04:21:52.490Z,94969.28
2023-01-17T04:24:19.655Z,94979.56
2023-01-17T04:26:48.275Z,94974.25
2023-01-17T04:29:15.336Z,94977.91
2023-01-17T04:31:42.659Z,94977.41
2023-01-17T04:34:10.171Z,94981.63
2023-01-17T04:36:37.241Z,94981.78
2023-01-17T04:39:04.595Z,94978.44
2023-01-17T04:41:31.735Z,94989.44
2023-01-17T04:44:00.339Z,94993.25
2023-01-17T04:46:27.556Z,94997.34
2023-01-17T04:48:54.729Z,94993.44
2023-01-17T04:51:22.587Z,94991.78
2023-01-17T04:53:49.659Z,94996.38
2023-01-17T04:56:16.874Z,94986.44
2023-01-17T04:58:43.932Z,94982.38
2023-01-17T05:01:12.391Z,94983.88
2023-01-17T05:03:39.512Z,94983.19
2023-01-17T05:06:06.635Z,94980.28
2023-01-17T05:08:33.683Z,94991.94
2023-01-17T05:11:00.817Z,94995.13
2023-01-17T05:13:27.912Z,95001.41
2023-01-17T05:15:56.305Z,95010.91
2023-01-17T05:18:24.848Z,95006.00
2023-01-17T05:20:51.933Z,95006.78
2023-01-17T05:23:19.027Z,95008.03
2023-01-17T05:25:46.109Z,95006.00
2023-01-17T05:28:13.771Z,95012.06
2023-01-17T05:30:40.953Z,95016.81
2023-01-17T05:33:08.080Z,95009.56
2023-01-17T05:35:36.535Z,95029.53
2023-01-17T05:38:03.661Z,95025.94
2023-01-17T05:40:32.359Z,95038.09
2023-01-17T05:43:00.946Z,95037.22
2023-01-17T05:45:30.522Z,95042.31
2023-01-17T05:47:58.274Z,95047.22
2023-01-17T05:50:28.528Z,95041.06
2023-01-17T05:52:59.053Z,95033.81
2023-01-17T05:55:27.945Z,95037.72
2023-01-17T05:57:55.292Z,95016.94
2023-01-17T06:00:22.985Z,95038.47
2023-01-17T06:02:52.450Z,95037.72
2023-01-17T06:05:19.559Z,95001.72
2023-01-17T06:07:47.174Z,95033.97
2023-01-17T06:10:16.830Z,95055.41
2023-01-17T06:12:45.390Z,95053.03
2023-01-17T06:15:14.013Z,95059.19
2023-01-17T06:17:41.535Z,95055.25
2023-01-17T06:20:11.141Z,95052.25
2023-01-17T06:22:38.281Z,95058.72
2023-01-17T06:25:05.816Z,95063.28
2023-01-17T06:27:34.234Z,95065.38
2023-01-17T06:30:01.350Z,95061.91
2023-01-17T06:32:28.483Z,95065.69
2023-01-17T06:34:55.650Z,95070.41
2023-01-17T06:37:22.741Z,95075.47
2023-01-17T06:39:49.815Z,95075.84
2023-01-17T06:42:16.912Z,95087.50
2023-01-17T06:44:45.329Z,95090.16
2023-01-17T06:47:12.386Z,95091.25
2023-01-17T06:49:39.489Z,95078.53
2023-01-17T06:52:06.617Z,95079.28
2023-01-17T06:54:33.688Z,95085.44
2023-01-17T06:57:00.743Z,95083.56
2023-01-17T06:59:27.833Z,95082.59
2023-01-17T07:01:56.225Z,95071.09
2023-01-17T07:04:23.288Z,95067.75
2023-01-17T07:06:50.379Z,95060.69
2023-01-17T07:09:17.485Z,95064.47
2023-01-17T07:11:44.555Z,95064.34
2023-01-17T07:14:12.971Z,95067.81
2023-01-17T07:16:40.080Z,95071.91
2023-01-17T07:19:08.605Z,95069.34
2023-01-17T07:21:35.750Z,95068.56
2023-01-17T07:24:02.863Z,95073.78
2023-01-17T07:26:29.986Z,95072.38
2023-01-17T07:28:58.132Z,95070.03
2023-01-17T07:31:25.256Z,95055.91
2023-01-17T07:33:52.404Z,95071.94
2023-01-17T07:36:20.841Z,95068.63
2023-01-17T07:38:47.896Z,95069.88
2023-01-17T07:41:14.977Z,95059.16
2023-01-17T07:43:42.061Z,95062.50
2023-01-17T07:46:09.205Z,95066.09
2023-01-17T07:48:36.290Z,95062.78
2023-01-17T07:51:03.629Z,95058.84
2023-01-17T07:53:32.014Z,95062.59
2023-01-17T07:56:01.114Z,95063.38
2023-01-17T07:58:28.571Z,95052.19
2023-01-17T08:01:01.423Z,95059.47
2023-01-17T08:03:28.723Z,95056.16
2023-01-17T08:05:56.140Z,95051.75
2023-01-17T08:08:23.323Z,95052.09
2023-01-17T08:10:51.842Z,95045.13
2023-01-17T08:13:18.997Z,95043.91
2023-01-17T08:15:48.079Z,95044.66
2023-01-17T08:18:15.297Z,95040.09
2023-01-17T08:20:43.258Z,95047.34
2023-01-17T08:23:10.381Z,95040.59
2023-01-17T08:25:37.818Z,95040.28
2023-01-17T08:28:06.303Z,95050.84
2023-01-17T08:30:33.381Z,95054.81
2023-01-17T08:33:00.502Z,95055.44
2023-01-17T08:35:27.821Z,95060.94
2023-01-17T08:37:55.932Z,95052.75
2023-01-17T08:40:23.890Z,95046.94
2023-01-17T08:42:54.575Z,95051.47
2023-01-17T08:45:23.258Z,95045.44
2023-01-17T08:47:51.108Z,95051.13
2023-01-17T08:50:18.634Z,95047.50
2023-01-17T08:52:45.820Z,95053.31
2023-01-17T08:55:12.872Z,95056.16
2023-01-17T08:57:39.938Z,95049.97
2023-01-17T09:00:08.319Z,95047.25
2023-01-17T09:02:36.715Z,95050.69
2023-01-17T09:05:04.156Z,95042.63
2023-01-17T09:07:31.257Z,95030.81
2023-01-17T09:09:58.363Z,95029.84
2023-01-17T09:12:25.535Z,95025.72
2023-01-17T09:14:52.650Z,95034.53
2023-01-17T09:17:19.717Z,95022.72
2023-01-17T09:19:48.140Z,95019.41
2023-01-17T09:22:15.426Z,95014.50
2023-01-17T09:24:42.485Z,95023.31
2023-01-17T09:27:09.589Z,95029.63
2023-01-17T09:29:36.748Z,95030.13
2023-01-17T09:32:04.257Z,95039.56
2023-01-17T09:34:31.810Z,95042.94
2023-01-17T09:37:00.238Z,95044.53
2023-01-17T09:39:27.335Z,95050.06
2023-01-17T09:42:00.704Z,95050.38
2023-01-17T09:44:32.521Z,95039.53
2023-01-17T09:47:11.338Z,95041.75
2023-01-17T09:49:41.947Z,95041.16
2023-01-17T09:52:13.823Z,95044.47
2023-01-17T09:54:42.945Z,95047.28
2023-01-17T09:57:22.698Z,95054.88
2023-01-17T10:00:03.316Z,95064.94
2023-01-17T10:03:02.086Z,95058.63
2023-01-17T10:05:42.616Z,95068.56
2023-01-17T10:08:25.223Z,95054.09
2023-01-17T10:11:06.881Z,95054.88
2023-01-17T10:13:44.658Z,95044.47
2023-01-17T10:16:31.388Z,95033.78
2023-01-17T10:19:21.810Z,95032.84
2023-01-17T10:21:58.720Z,95017.38
2023-01-17T10:24:53.654Z,95003.63
2023-01-17T10:27:23.055Z,95000.28
2023-01-17T10:29:51.303Z,94997.72
2023-01-17T10:32:22.631Z,94991.22
2023-01-17T10:34:51.947Z,94974.66
2023-01-17T10:37:24.211Z,94972.91
2023-01-17T10:39:55.775Z,94961.91
2023-01-17T10:42:26.824Z,94879.56
2023-01-17T10:45:03.972Z,94947.66
2023-01-17T10:47:34.607Z,94943.78
2023-01-17T10:50:04.203Z,94939.19
2023-01-17T10:52:42.412Z,94934.38
2023-01-17T10:55:22.573Z,94928.66
2023-01-17T10:57:50.949Z,94938.09
2023-01-17T11:00:28.698Z,94937.09
2023-01-17T11:02:55.980Z,94932.59
2023-01-17T11:05:26.599Z,94919.53
2023-01-17T11:07:57.776Z,94932.00
2023-01-17T11:10:36.190Z,94928.88
2023-01-17T11:13:04.828Z,94937.25
2023-01-17T11:15:36.899Z,94922.69
2023-01-17T11:18:14.700Z,94936.69
2023-01-17T11:20:42.051Z,94929.28
2023-01-17T11:23:15.247Z,94925.34
2023-01-17T11:25:51.115Z,94917.09
2023-01-17T11:28:22.979Z,94909.38
2023-01-17T11:30:55.018Z,94905.16
2023-01-17T11:33:39.642Z,94913.31
2023-01-17T11:36:16.011Z,94897.56
2023-01-17T11:38:54.514Z,94896.13
2023-01-17T11:41:24.104Z,94889.97
2023-01-17T11:43:53.190Z,94891.28
2023-01-17T11:46:20.682Z,94886.38
2023-01-17T11:48:50.641Z,94880.69
2023-01-17T11:51:25.715Z,94876.75
2023-01-17T11:53:54.336Z,94870.63
2023-01-17T11:56:30.647Z,94847.81
2023-01-17T11:59:17.879Z,94855.44
2023-01-17T12:01:50.497Z,94859.44
2023-01-17T12:04:27.237Z,94847.69
2023-01-17T12:07:09.798Z,94859.31
2023-01-17T12:09:43.251Z,94854.88
2023-01-17T12:12:22.196Z,94855.44
2023-01-17T12:15:04.625Z,94864.94
2023-01-17T12:17:52.225Z,94852.00
2023-01-17T12:20:25.992Z,94835.47
2023-01-17T12:23:19.652Z,94844.88
2023-01-17T12:25:55.409Z,94833.81
2023-01-17T12:28:44.741Z,94834.13
2023-01-17T12:31:23.831Z,94828.88
2023-01-17T12:33:55.501Z,94832.78
2023-01-17T12:36:40.356Z,94834.69
2023-01-17T12:39:09.399Z,94825.25
2023-01-17T12:41:50.842Z,94829.31
2023-01-17T12:44:29.644Z,94814.53
2023-01-17T12:47:00.544Z,94829.97
2023-01-17T12:49:40.670Z,94819.09
2023-01-17T12:52:18.774Z,94819.19
2023-01-17T12:54:50.314Z,94819.44
2023-01-17T12:57:22.072Z,94814.75
2023-01-17T12:59:58.167Z,94816.19
2023-01-17T13:02:31.697Z,94812.06
2023-01-17T13:05:07.296Z,94810.94
2023-01-17T13:07:44.050Z,94809.84
2023-01-17T13:10:24.090Z,94804.94
2023-01-17T13:12:54.288Z,94798.44
2023-01-17T13:15:27.103Z,94773.88
2023-01-17T13:18:04.601Z,94783.06
2023-01-17T13:20:47.743Z,94781.97
2023-01-17T13:23:27.265Z,94779.94
2023-01-17T13:25:55.059Z,94772.69
2023-01-17T13:28:35.830Z,94774.00
2023-01-17T13:31:41.325Z,94777.13
2023-01-17T13:34:31.362Z,94763.41
2023-01-17T13:37:16.005Z,94764.84
2023-01-17T13:39:50.102Z,94765.50
2023-01-17T13:42:24.018Z,94749.44
2023-01-17T13:44:51.552Z,94757.00
2023-01-17T13:47:43.804Z,94746.97
2023-01-17T13:50:48.985Z,94748.53
2023-01-17T13:53:55.597Z,94748.06
2023-01-17T13:56:34.034Z,94749.84
2023-01-17T13:59:28.399Z,94744.81
2023-01-17T14:01:56.406Z,94748.25
2023-01-17T14:04:45.759Z,94743.69
2023-01-17T14:07:24.498Z,94749.66
2023-01-17T14:09:51.782Z,94747.41
2023-01-17T14:12:30.787Z,94749.56
2023-01-17T14:15:01.087Z,94745.19
2023-01-17T14:17:49.801Z,94742.97
2023-01-17T14:20:50.072Z,94745.84
2023-01-17T14:23:25.864Z,94743.47
2023-01-17T14:25:53.500Z,94735.44
2023-01-17T14:28:28.471Z,94735.13
2023-01-17T14:30:56.532Z,94718.31
2023-01-17T14:33:28.579Z,94739.25
2023-01-17T14:36:00.021Z,94739.56
2023-01-17T14:38:29.973Z,94731.53
2023-01-17T14:41:01.173Z,94728.84
2023-01-17T14:43:30.903Z,94736.91
2023-01-17T14:46:00.359Z,94698.38
2023-01-17T14:48:28.640Z,94723.31
2023-01-17T14:50:57.387Z,94726.13
2023-01-17T14:53:25.469Z,94709.59
2023-01-17T14:55:56.472Z,94706.56
2023-01-17T14:58:26.169Z,94698.53
2023-01-17T15:00:57.399Z,94693.97
2023-01-17T15:03:24.691Z,94692.53
2023-01-17T15:05:53.924Z,94673.00
2023-01-17T15:08:23.564Z,94663.84
2023-01-17T15:10:55.457Z,94660.28
2023-01-17T15:13:42.924Z,94672.44
2023-01-17T15:16:19.497Z,94619.78
2023-01-17T15:18:46.946Z,94665.41
2023-01-17T15:21:16.996Z,94672.69
2023-01-17T15:23:47.093Z,94674.56
2023-01-17T15:26:17.905Z,94680.72
2023-01-17T15:28:45.743Z,94674.44
2023-01-17T15:31:15.261Z,94674.44
2023-01-17T15:33:45.091Z,94679.00
2023-01-17T15:36:23.214Z,94676.19
2023-01-17T15:38:55.483Z,94671.66
2023-01-17T15:41:25.307Z,94669.03
2023-01-17T15:43:52.396Z,94668.50
2023-01-17T15:46:22.450Z,94654.53
2023-01-17T15:48:49.973Z,94646.81
2023-01-17T15:51:30.594Z,94638.50
2023-01-17T15:53:57.752Z,94637.56
2023-01-17T15:56:32.278Z,94627.28
2023-01-17T15:59:30.268Z,94633.03
2023-01-17T16:01:58.257Z,94638.28
2023-01-17T16:04:27.204Z,94643.41
2023-01-17T16:06:54.643Z,94636.47
2023-01-17T16:09:23.007Z,94638.81
2023-01-17T16:11:51.414Z,94621.91
2023-01-17T16:14:18.520Z,94627.09
2023-01-17T16:16:52.402Z,94628.56
2023-01-17T16:19:19.635Z,94621.03
2023-01-17T16:21:46.695Z,94628.56
2023-01-17T16:24:14.088Z,94617.28
2023-01-17T16:26:41.187Z,94614.50
2023-01-17T16:29:09.577Z,94611.25
2023-01-17T16:31:36.656Z,94616.78
2023-01-17T16:34:09.885Z,94610.16
2023-01-17T16:36:37.018Z,94601.56
2023-01-17T16:39:04.502Z,94597.97
2023-01-17T16:41:32.001Z,94595.63
2023-01-17T16:44:01.208Z,94588.59
2023-01-17T16:46:30.036Z,94585.59
2023-01-17T16:48:59.454Z,94579.34
2023-01-17T16:51:26.591Z,94574.97
2023-01-17T16:53:53.737Z,94566.13
2023-01-17T16:56:20.869Z,94555.13
2023-01-17T16:58:47.987Z,94562.47
2023-01-17T17:01:17.230Z,94560.81
2023-01-17T17:03:46.460Z,94563.28
2023-01-17T17:06:14.193Z,94566.06
2023-01-17T17:08:41.658Z,94571.75
2023-01-17T17:11:10.430Z,94575.22
2023-01-17T17:13:37.589Z,94569.19
2023-01-17T17:16:09.911Z,94572.09
2023-01-17T17:18:37.038Z,94560.75
2023-01-17T17:21:05.527Z,94526.75
2023-01-17T17:23:32.599Z,94558.06
2023-01-17T17:25:59.725Z,94562.63
2023-01-17T17:28:26.805Z,94569.81
2023-01-17T17:31:02.270Z,94568.22
2023-01-17T17:33:29.398Z,94568.78
2023-01-17T17:36:01.987Z,94567.31
2023-01-17T17:38:30.594Z,94568.78
2023-01-17T17:41:04.740Z,94570.13
2023-01-17T17:43:35.707Z,94575.91
2023-01-17T17:46:02.852Z,94574.22
2023-01-17T17:48:30.070Z,94576.09
2023-01-17T17:50:59.575Z,94574.31
2023-01-17T17:53:27.058Z,94566.69
2023-01-17T17:55:55.748Z,94574.06
2023-01-17T17:58:23.127Z,94577.09
2023-01-17T18:00:50.247Z,94573.41
2023-01-17T18:03:17.341Z,94579.00
2023-01-17T18:05:44.430Z,94579.44
2023-01-17T18:08:11.493Z,94578.22
2023-01-17T18:10:38.891Z,94588.94
2023-01-17T18:13:07.585Z,94589.63
2023-01-17T18:15:34.737Z,94595.63
2023-01-17T18:18:01.834Z,94602.94
2023-01-17T18:20:28.957Z,94602.19
2023-01-17T18:22:56.044Z,94598.50
2023-01-17T18:25:23.121Z,94600.75
2023-01-17T18:27:50.200Z,94601.28
2023-01-17T18:30:18.932Z,94610.34
2023-01-17T18:32:48.213Z,94608.91
2023-01-17T18:35:15.429Z,94613.03
2023-01-17T18:37:42.498Z,94605.34
2023-01-17T18:40:11.012Z,94616.50
2023-01-17T18:42:38.102Z,94611.59
2023-01-17T18:45:06.411Z,94609.91
2023-01-17T18:47:34.816Z,94613.72
2023-01-17T18:50:02.065Z,94619.06
2023-01-17T18:52:29.171Z,94616.94
2023-01-17T18:54:56.252Z,94617.72
2023-01-17T18:57:23.397Z,94591.69
2023-01-17T18:59:50.461Z,94618.38
2023-01-17T19:02:17.519Z,94624.78
2023-01-17T19:04:45.946Z,94625.53
2023-01-17T19:07:13.010Z,94622.19
2023-01-17T19:09:40.123Z,94631.25
2023-01-17T19:12:07.602Z,94627.19
2023-01-17T19:14:34.754Z,94626.56
2023-01-17T19:17:01.866Z,94629.22
2023-01-17T19:19:29.038Z,94637.97
2023-01-17T19:21:57.440Z,94636.72
2023-01-17T19:24:24.617Z,94643.78
2023-01-17T19:26:51.713Z,94644.44
2023-01-17T19:29:18.978Z,94659.53
2023-01-17T19:31:46.074Z,94660.22
2023-01-17T19:34:13.559Z,94648.03
2023-01-17T19:36:40.918Z,94652.38
2023-01-17T19:39:09.696Z,94663.34
2023-01-17T19:41:40.726Z,94667.47
2023-01-17T19:44:09.807Z,94659.19
2023-01-17T19:46:37.249Z,94667.03
2023-01-17T19:49:05.927Z,94666.09
2023-01-17T19:51:33.036Z,94666.69
2023-01-17T19:54:00.155Z,94670.00
2023-01-17T19:56:29.446Z,94670.13
2023-01-17T19:58:56.974Z,94670.47
2023-01-17T20:01:26.105Z,94677.03
2023-01-17T20:03:54.535Z,94677.84
2023-01-17T20:06:24.457Z,94681.75
2023-01-17T20:08:51.632Z,94684.56
2023-01-17T20:11:20.240Z,94692.94
2023-01-17T20:13:51.102Z,94683.34
2023-01-17T20:16:18.395Z,94687.56
2023-01-17T20:18:45.662Z,94679.97
2023-01-17T20:21:15.284Z,94689.72
2023-01-17T20:23:44.215Z,94692.59
2023-01-17T20:26:11.797Z,94690.56
2023-01-17T20:28:40.619Z,94695.16
2023-01-17T20:31:10.680Z,94698.84
2023-01-17T20:33:37.957Z,94699.84
2023-01-17T20:36:10.735Z,94686.63
2023-01-17T20:38:38.893Z,94708.31
2023-01-17T20:41:06.146Z,94715.91
2023-01-17T20:43:33.220Z,94720.19
2023-01-17T20:46:00.395Z,94712.47
2023-01-17T20:48:28.855Z,94716.91
2023-01-17T20:50:55.959Z,94705.72
2023-01-17T20:53:23.139Z,94713.56
2023-01-17T20:55:55.983Z,94699.09
2023-01-17T20:58:23.111Z,94703.03
2023-01-17T21:00:50.360Z,94700.03
2023-01-17T21:03:17.757Z,94703.81
2023-01-17T21:05:46.160Z,94700.69
2023-01-17T21:08:13.254Z,94696.41
2023-01-17T21:10:45.669Z,94692.63
2023-01-17T21:13:12.813Z,94690.09
2023-01-17T21:15:42.569Z,94680.63
2023-01-17T21:18:09.696Z,94682.97
2023-01-17T21:20:36.781Z,94679.81
2023-01-17T21:23:05.307Z,94679.34
2023-01-17T21:25:32.383Z,94674.78
2023-01-17T21:27:59.559Z,94674.31
2023-01-17T21:30:26.734Z,94669.28
2023-01-17T21:32:53.809Z,94673.88
2023-01-17T21:35:20.922Z,94674.19
2023-01-17T21:37:48.344Z,94671.06
2023-01-17T21:40:16.970Z,94678.22
2023-01-17T21:42:44.251Z,94687.16
2023-01-17T21:45:11.609Z,94682.34
2023-01-17T21:47:38.839Z,94691.50
2023-01-17T21:50:06.577Z,94700.97
2023-01-17T21:52:33.672Z,94694.03
2023-01-17T21:55:00.737Z,94697.53
2023-01-17T21:57:29.179Z,94699.75
2023-01-17T21:59:56.380Z,94709.22
2023-01-17T22:02:23.624Z,94681.16
2023-01-17T22:04:50.719Z,94700.66
2023-01-17T22:07:18.035Z,94704.25
2023-01-17T22:09:45.091Z,94696.97
2023-01-17T22:12:12.182Z,94710.50
2023-01-17T22:14:40.600Z,94708.59
2023-01-17T22:17:07.730Z,94711.59
2023-01-17T22:19:34.829Z,94708.34
2023-01-17T22:22:01.969Z,94715.28
2023-01-17T22:24:29.032Z,94711.84
2023-01-17T22:26:56.151Z,94697.59
2023-01-17T22:29:23.449Z,94688.41
2023-01-17T22:31:51.871Z,94712.81
2023-01-17T22:34:19.045Z,94708.13
2023-01-17T22:36:46.217Z,94711.25
2023-01-17T22:39:13.478Z,94720.06
2023-01-17T22:41:40.569Z,94704.41
2023-01-17T22:44:07.715Z,94711.00
2023-01-17T22:46:35.948Z,94709.00
2023-01-17T22:49:05.279Z,94717.34
2023-01-17T22:51:32.392Z,94723.03
2023-01-17T22:54:00.372Z,94717.22
2023-01-17T22:56:29.822Z,94713.88
2023-01-17T22:58:57.686Z,94712.22
2023-01-17T23:01:26.254Z,94714.91
2023-01-17T23:03:55.336Z,94736.03
2023-01-17T23:06:28.062Z,94726.31
2023-01-17T23:08:56.823Z,94722.31
2023-01-17T23:11:28.877Z,94724.22
2023-01-17T23:13:55.936Z,94717.59
2023-01-17T23:16:23.220Z,94717.94
2023-01-17T23:18:50.339Z,94715.59
2023-01-17T23:21:17.586Z,94713.69
2023-01-17T23:23:46.003Z,94719.03
2023-01-17T23:26:13.153Z,94723.94
2023-01-17T23:28:40.205Z,94721.59
2023-01-17T23:31:07.274Z,94728.06
2023-01-17T23:33:34.400Z,94724.13
2023-01-17T23:36:01.493Z,94727.03
2023-01-17T23:38:28.559Z,94719.66
2023-01-17T23:41:05.049Z,94715.88
2023-01-17T23:43:32.508Z,94721.88
2023-01-17T23:45:59.632Z,94715.41
2023-01-17T23:48:27.794Z,94716.97
2023-01-17T23:50:57.877Z,94710.66
2023-01-17T23:53:25.187Z,94710.41
2023-01-17T23:55:53.889Z,94710.75
2023-01-17T23:58:24.780Z,94701.59
